Kalisz, Poland
Current Conditions -  °F | °C
As of 8:30 AM on Wednesday 28 Jan 2015 (Local Time) from EPLL Reporting Station
Overcast Overcast  
Wind Chill: 26°   Ceiling: 600
Heat Index: 32°   Visibility: 6mi
Dew Point: 32°   Wind: 6mph
Humidity: 100%   Direction: 270°W
Pressure: 29.88"   Gusts: NA
Location:  51.77°N, 18.1°E
Report Text: EPLL 280630Z 27005KT 9000 BKN006 OVC011 00/M00 Q1012 R25/4/0293
Loading
Personal Weather Stations






























Interactive Weather Map New forecast layout! Learn more

10-Day Weather Forecast

Advertisements
Track Severe Weather on mobile